Time,TemperatureF,DewpointF,PressureIn,WindDirection,WindDirectionDegrees,WindSpeedMPH,WindSpeedGustMPH,Humidity,HourlyPrecipIn,Conditions,Clouds,dailyrainin,SoftwareType,DateUTC
2013-02-16 00:37:00,0.0,0.0,29.97,North,349,4.9,4.9,0,4.09,,---,0.00,VWS V14.01,2013-02-16 05:37:00,
2013-02-16 00:38:00,0.0,0.0,29.97,North,353,5.8,5.8,0,0.00,,---,0.00,VWS V14.01,2013-02-16 05:38:00,
2013-02-16 00:41:00,0.0,0.0,29.97,NW,319,4.9,6.3,0,0.00,,---,0.00,VWS V14.01,2013-02-16 05:41:00,
2013-02-16 00:43:00,0.0,0.0,29.97,WNW,299,7.6,7.6,0,0.00,,---,0.00,VWS V14.01,2013-02-16 05:43:00,
2013-02-16 00:48:00,0.0,0.0,29.97,NW,316,5.8,7.2,0,0.00,,---,0.00,VWS V14.01,2013-02-16 05:48:00,
2013-02-16 00:54:00,0.0,0.0,29.97,NNW,344,5.8,5.8,0,0.00,,---,0.00,VWS V14.01,2013-02-16 05:54:00,
2013-02-16 00:59:00,0.0,0.0,29.97,North,8,6.3,6.3,0,0.00,,---,0.00,VWS V14.01,2013-02-16 05:59:00,
2013-02-16 01:05:00,0.0,0.0,29.97,NNW,342,2.7,8.1,0,0.00,,---,0.00,VWS V14.01,2013-02-16 06:05:00,
2013-02-16 01:10:00,0.0,0.0,29.97,North,5,4.0,5.4,0,0.00,,---,0.00,VWS V14.01,2013-02-16 06:10:00,
2013-02-16 01:15:00,0.0,0.0,29.97,WNW,294,3.1,5.8,0,0.00,,---,0.00,VWS V14.01,2013-02-16 06:15:00,
2013-02-16 01:21:00,0.0,0.0,29.97,NNW,346,5.4,5.8,0,0.00,,---,0.00,VWS V14.01,2013-02-16 06:21:00,
2013-02-16 01:26:00,0.0,0.0,29.97,NNW,339,5.4,6.3,0,0.00,,---,0.00,VWS V14.01,2013-02-16 06:26:00,
2013-02-16 01:31:00,0.0,0.0,29.97,North,11,3.6,4.9,0,0.00,,---,0.00,VWS V14.01,2013-02-16 06:31:00,
2013-02-16 01:36:00,0.0,0.0,29.97,NW,313,3.6,5.4,0,0.00,,---,0.00,VWS V14.01,2013-02-16 06:36:00,
2013-02-16 01:41:00,0.0,0.0,29.97,NNW,335,2.7,5.8,0,0.00,,---,0.00,VWS V14.01,2013-02-16 06:41:00,
2013-02-16 01:46:00,0.0,0.0,29.97,North,10,3.1,3.6,0,0.00,,---,0.00,VWS V14.01,2013-02-16 06:46:00,
2013-02-16 01:51:00,0.0,0.0,29.97,North,353,2.7,3.1,0,0.00,,---,0.00,VWS V14.01,2013-02-16 06:51:00,
2013-02-16 01:56:00,0.0,0.0,29.97,North,9,4.0,4.9,0,0.00,,---,0.00,VWS V14.01,2013-02-16 06:56:00,
2013-02-16 02:02:00,0.0,0.0,29.97,North,4,3.6,3.6,0,0.00,,---,0.00,VWS V14.01,2013-02-16 07:02:00,
2013-02-16 02:07:00,0.0,0.0,29.97,NNW,337,2.7,3.1,0,0.00,,---,0.00,VWS V14.01,2013-02-16 07:07:00,
2013-02-16 02:12:00,0.0,0.0,29.97,North,349,2.7,2.7,0,0.00,,---,0.00,VWS V14.01,2013-02-16 07:12:00,
2013-02-16 02:17:00,0.0,0.0,29.97,WNW,301,2.2,4.0,0,0.00,,---,0.00,VWS V14.01,2013-02-16 07:17:00,
2013-02-16 02:22:00,0.0,0.0,29.97,NNW,341,4.0,4.0,0,0.00,,---,0.00,VWS V14.01,2013-02-16 07:22:00,
2013-02-16 02:27:00,0.0,0.0,29.97,North,353,3.1,3.1,0,0.00,,---,0.00,VWS V14.01,2013-02-16 07:27:00,
2013-02-16 02:32:00,0.0,0.0,29.97,North,353,0.0,3.1,0,0.00,,---,0.00,VWS V14.01,2013-02-16 07:32:00,
2013-02-16 02:37:00,0.0,0.0,29.97,North,357,3.6,4.0,0,0.00,,---,0.00,VWS V14.01,2013-02-16 07:37:00,
2013-02-16 02:42:00,0.0,0.0,29.97,North,353,2.7,3.1,0,0.00,,---,0.00,VWS V14.01,2013-02-16 07:42:00,
2013-02-16 02:47:00,0.0,0.0,29.94,North,0,2.7,2.7,0,0.00,,---,0.00,VWS V14.01,2013-02-16 07:47:00,
2013-02-16 02:52:00,0.0,0.0,29.94,North,357,0.0,0.0,0,0.00,,---,0.00,VWS V14.01,2013-02-16 07:52:00,
2013-02-16 02:57:00,0.0,0.0,29.94,NNW,343,0.0,0.0,0,0.00,,---,0.00,VWS V14.01,2013-02-16 07:57:00,
2013-02-16 03:02:00,0.0,0.0,29.94,North,350,3.6,4.0,0,0.00,,---,0.00,VWS V14.01,2013-02-16 08:02:00,
2013-02-16 03:07:00,0.0,0.0,29.94,NNW,343,0.0,3.6,0,0.00,,---,0.00,VWS V14.01,2013-02-16 08:07:00,
2013-02-16 03:12:00,0.0,0.0,29.94,North,0,2.7,5.8,0,0.00,,---,0.00,VWS V14.01,2013-02-16 08:12:00,
2013-02-16 03:17:00,0.0,0.0,29.94,North,357,4.9,4.9,0,0.00,,---,0.00,VWS V14.01,2013-02-16 08:17:00,
2013-02-16 03:22:00,0.0,0.0,29.94,NNW,343,3.1,3.6,0,0.00,,---,0.00,VWS V14.01,2013-02-16 08:22:00,
2013-02-16 03:27:00,0.0,0.0,29.94,North,353,3.6,3.6,0,0.00,,---,0.00,VWS V14.01,2013-02-16 08:27:00,
2013-02-16 03:32:00,0.0,0.0,29.94,NNE,12,2.7,4.0,0,0.00,,---,0.00,VWS V14.01,2013-02-16 08:32:00,
2013-02-16 03:37:00,0.0,0.0,29.94,North,353,5.4,5.8,0,0.00,,---,0.00,VWS V14.01,2013-02-16 08:37:00,
2013-02-16 03:42:00,0.0,0.0,29.94,North,357,5.8,5.8,0,0.00,,---,0.00,VWS V14.01,2013-02-16 08:42:00,
2013-02-16 03:47:00,0.0,0.0,29.94,North,0,0.0,0.0,0,0.00,,---,0.00,VWS V14.01,2013-02-16 08:47:00,
2013-02-16 03:52:00,0.0,0.0,29.94,NNW,346,4.0,5.8,0,0.00,,---,0.00,VWS V14.01,2013-02-16 08:52:00,
2013-02-16 03:57:00,0.0,0.0,29.94,North,349,0.0,2.7,0,0.00,,---,0.00,VWS V14.01,2013-02-16 08:57:00,
2013-02-16 04:02:00,0.0,0.0,29.94,North,353,3.1,3.1,0,0.00,,---,0.00,VWS V14.01,2013-02-16 09:02:00,
2013-02-16 04:07:00,0.0,0.0,29.94,North,9,4.0,4.0,0,0.00,,---,0.00,VWS V14.01,2013-02-16 09:07:00,
2013-02-16 04:12:00,0.0,0.0,29.94,NE,52,4.0,4.0,0,0.00,,---,0.00,VWS V14.01,2013-02-16 09:12:00,
2013-02-16 04:17:00,0.0,0.0,29.94,North,353,4.0,4.0,0,0.00,,---,0.00,VWS V14.01,2013-02-16 09:17:00,
2013-02-16 04:22:00,0.0,0.0,29.94,North,1,4.0,4.0,0,0.00,,---,0.00,VWS V14.01,2013-02-16 09:22:00,
2013-02-16 04:27:00,0.0,0.0,29.94,NNW,346,2.2,3.6,0,0.00,,---,0.00,VWS V14.01,2013-02-16 09:27:00,
2013-02-16 04:32:00,0.0,0.0,29.94,NNE,31,4.0,5.8,0,0.00,,---,0.00,VWS V14.01,2013-02-16 09:32:00,
2013-02-16 04:37:00,0.0,0.0,29.94,NNW,344,3.6,5.8,0,0.00,,---,0.00,VWS V14.01,2013-02-16 09:37:00,
2013-02-16 04:42:00,0.0,0.0,29.94,North,357,3.6,6.3,0,0.00,,---,0.00,VWS V14.01,2013-02-16 09:42:00,
2013-02-16 04:47:00,0.0,0.0,29.94,North,6,5.4,5.4,0,0.00,,---,0.00,VWS V14.01,2013-02-16 09:47:00,
2013-02-16 04:52:00,0.0,0.0,29.94,North,353,2.2,3.6,0,0.00,,---,0.00,VWS V14.01,2013-02-16 09:52:00,
2013-02-16 04:57:00,0.0,0.0,29.94,NNE,23,3.6,3.6,0,0.00,,---,0.00,VWS V14.01,2013-02-16 09:57:00,
2013-02-16 05:02:00,0.0,0.0,29.94,NNE,27,4.9,5.4,0,0.00,,---,0.00,VWS V14.01,2013-02-16 10:02:00,
2013-02-16 05:07:00,0.0,0.0,29.94,NE,38,3.6,4.0,0,0.00,,---,0.00,VWS V14.01,2013-02-16 10:07:00,
2013-02-16 05:12:00,0.0,0.0,29.94,North,0,4.9,4.9,0,0.00,,---,0.00,VWS V14.01,2013-02-16 10:12:00,
2013-02-16 05:17:00,0.0,0.0,29.94,North,7,4.9,4.9,0,0.00,,---,0.00,VWS V14.01,2013-02-16 10:17:00,
2013-02-16 05:22:00,0.0,0.0,29.94,North,11,3.1,3.6,0,0.00,,---,0.00,VWS V14.01,2013-02-16 10:22:00,
2013-02-16 05:27:00,0.0,0.0,29.94,NE,34,0.0,0.0,0,0.00,,---,0.00,VWS V14.01,2013-02-16 10:27:00,
2013-02-16 05:32:00,0.0,0.0,29.94,North,0,2.7,2.7,0,0.00,,---,0.00,VWS V14.01,2013-02-16 10:32:00,
2013-02-16 05:37:00,0.0,0.0,29.94,North,353,6.3,6.3,0,0.00,,---,0.00,VWS V14.01,2013-02-16 10:37:00,
2013-02-16 05:42:00,0.0,0.0,29.94,NE,42,0.0,2.7,0,0.00,,---,0.00,VWS V14.01,2013-02-16 10:42:00,
2013-02-16 05:47:00,0.0,0.0,29.94,North,3,6.3,6.3,0,0.00,,---,0.00,VWS V14.01,2013-02-16 10:47:00,
2013-02-16 05:52:00,0.0,0.0,29.94,NNE,16,3.1,3.6,0,0.00,,---,0.00,VWS V14.01,2013-02-16 10:52:00,
2013-02-16 05:57:00,0.0,0.0,29.94,North,357,4.9,5.8,0,0.00,,---,0.00,VWS V14.01,2013-02-16 10:57:00,
2013-02-16 06:02:00,0.0,0.0,29.94,North,353,3.1,6.3,0,0.00,,---,0.00,VWS V14.01,2013-02-16 11:02:00,
2013-02-16 06:07:00,0.0,0.0,29.94,NE,43,4.9,5.8,0,0.00,,---,0.00,VWS V14.01,2013-02-16 11:07:00,
2013-02-16 06:12:00,0.0,0.0,29.94,NNE,22,2.7,4.0,0,0.00,,---,0.00,VWS V14.01,2013-02-16 11:12:00,
2013-02-16 06:17:00,0.0,0.0,29.94,NNE,31,5.4,5.4,0,0.00,,---,0.00,VWS V14.01,2013-02-16 11:17:00,
2013-02-16 06:22:00,0.0,0.0,29.94,NE,49,4.0,5.8,0,0.00,,---,0.00,VWS V14.01,2013-02-16 11:22:00,
2013-02-16 06:27:00,0.0,0.0,29.94,NNE,17,6.3,7.2,0,0.00,,---,0.00,VWS V14.01,2013-02-16 11:27:00,
2013-02-16 06:32:00,0.0,0.0,29.94,NNE,31,3.6,6.3,0,0.00,,---,0.00,VWS V14.01,2013-02-16 11:32:00,
2013-02-16 06:37:00,0.0,0.0,29.94,NNE,15,3.1,5.8,0,0.00,,---,0.00,VWS V14.01,2013-02-16 11:37:00,
2013-02-16 06:42:00,0.0,0.0,29.94,NNE,23,6.3,7.6,0,0.00,,---,0.00,VWS V14.01,2013-02-16 11:42:00,
2013-02-16 06:47:00,0.0,0.0,29.94,North,353,2.7,3.6,0,0.00,,---,0.00,VWS V14.01,2013-02-16 11:47:00,
2013-02-16 06:52:00,0.0,0.0,29.94,North,357,7.6,9.2,0,0.00,,---,0.00,VWS V14.01,2013-02-16 11:52:00,
2013-02-16 06:57:00,0.0,0.0,29.94,NNW,348,4.0,4.0,0,0.00,,---,0.00,VWS V14.01,2013-02-16 11:57:00,
2013-02-16 07:02:00,0.0,0.0,29.94,North,353,7.6,7.6,0,0.00,,---,0.00,VWS V14.01,2013-02-16 12:02:00,
2013-02-16 07:07:00,0.0,0.0,29.94,NNE,18,8.3,8.3,0,0.00,,---,0.00,VWS V14.01,2013-02-16 12:07:00,
2013-02-16 07:12:00,0.0,0.0,29.94,NE,51,6.7,6.7,0,0.00,,---,0.00,VWS V14.01,2013-02-16 12:12:00,
2013-02-16 07:17:00,0.0,0.0,29.94,NE,46,8.7,10.1,0,0.00,,---,0.00,VWS V14.01,2013-02-16 12:17:00,
2013-02-16 07:22:00,0.0,0.0,29.94,North,7,8.3,8.3,0,0.00,,---,0.00,VWS V14.01,2013-02-16 12:22:00,
2013-02-16 07:27:00,0.0,0.0,29.94,North,8,3.6,4.9,0,0.00,,---,0.00,VWS V14.01,2013-02-16 12:27:00,
2013-02-16 07:32:00,0.0,0.0,29.94,NNE,13,10.1,10.1,0,0.00,,---,0.00,VWS V14.01,2013-02-16 12:32:00,
2013-02-16 07:37:00,0.0,0.0,29.94,NNE,27,7.6,8.7,0,0.00,,---,0.00,VWS V14.01,2013-02-16 12:37:00,
2013-02-16 07:42:00,0.0,0.0,29.94,NW,324,5.4,5.4,0,0.00,,---,0.00,VWS V14.01,2013-02-16 12:42:00,
2013-02-16 07:47:00,0.0,0.0,29.94,North,7,6.3,8.1,0,0.00,,---,0.00,VWS V14.01,2013-02-16 12:47:00,
2013-02-16 07:52:00,0.0,0.0,29.94,North,5,4.9,6.3,0,0.00,,---,0.00,VWS V14.01,2013-02-16 12:52:00,
2013-02-16 07:57:00,0.0,0.0,29.94,NNE,17,4.0,5.4,0,0.00,,---,0.00,VWS V14.01,2013-02-16 12:57:00,
2013-02-16 08:02:00,0.0,0.0,29.94,NNE,19,3.6,5.8,0,0.00,,---,0.00,VWS V14.01,2013-02-16 13:02:00,
2013-02-16 08:07:00,0.0,0.0,29.94,NE,50,5.8,5.8,0,0.00,,---,0.00,VWS V14.01,2013-02-16 13:07:00,
2013-02-16 08:12:00,0.0,0.0,29.94,NNE,14,4.9,6.3,0,0.00,,---,0.00,VWS V14.01,2013-02-16 13:12:00,
2013-02-16 08:18:00,0.0,0.0,29.94,NE,41,5.8,8.3,0,0.00,,---,0.00,VWS V14.01,2013-02-16 13:18:00,
2013-02-16 08:23:00,0.0,0.0,29.94,NNE,14,2.7,8.1,0,0.00,,---,0.00,VWS V14.01,2013-02-16 13:23:00,
2013-02-16 08:28:00,0.0,0.0,29.94,NNE,23,3.6,8.1,0,0.00,,---,0.00,VWS V14.01,2013-02-16 13:28:00,
2013-02-16 08:33:00,0.0,0.0,29.94,North,0,8.1,10.5,0,0.00,,---,0.00,VWS V14.01,2013-02-16 13:33:00,
2013-02-16 08:38:00,0.0,0.0,29.94,NNW,329,3.6,10.5,0,0.00,,---,0.00,VWS V14.01,2013-02-16 13:38:00,
2013-02-16 08:43:00,0.0,0.0,29.94,NNE,32,8.7,10.1,0,0.00,,---,0.00,VWS V14.01,2013-02-16 13:43:00,
2013-02-16 08:48:00,0.0,0.0,29.94,NNE,32,4.0,5.8,0,0.00,,---,0.00,VWS V14.01,2013-02-16 13:48:00,
2013-02-16 08:53:00,0.0,0.0,29.94,North,357,5.4,10.5,0,0.00,,---,0.00,VWS V14.01,2013-02-16 13:53:00,
2013-02-16 08:58:00,0.0,0.0,29.94,NNE,29,6.3,8.1,0,0.00,,---,0.00,VWS V14.01,2013-02-16 13:58:00,
2013-02-16 09:03:00,0.0,0.0,29.94,NE,45,6.3,8.3,0,0.00,,---,0.00,VWS V14.01,2013-02-16 14:03:00,
2013-02-16 09:08:00,0.0,0.0,29.94,North,353,8.1,10.5,0,0.00,,---,0.00,VWS V14.01,2013-02-16 14:08:00,
2013-02-16 09:13:00,0.0,0.0,29.94,NE,44,3.6,8.7,0,0.00,,---,0.00,VWS V14.01,2013-02-16 14:13:00,
2013-02-16 09:18:00,0.0,0.0,29.94,NNE,15,5.4,5.4,0,0.00,,---,0.00,VWS V14.01,2013-02-16 14:18:00,
2013-02-16 09:23:00,0.0,0.0,29.94,North,5,6.3,8.1,0,0.00,,---,0.00,VWS V14.01,2013-02-16 14:23:00,
2013-02-16 09:28:00,0.0,0.0,29.97,NE,44,11.0,11.0,0,0.00,,---,0.00,VWS V14.01,2013-02-16 14:28:00,
2013-02-16 09:33:00,0.0,0.0,29.97,NNE,15,4.0,7.2,0,0.00,,---,0.00,VWS V14.01,2013-02-16 14:33:00,
2013-02-16 09:38:00,0.0,0.0,29.97,North,8,9.2,9.2,0,0.00,,---,0.00,VWS V14.01,2013-02-16 14:38:00,
2013-02-16 09:43:00,0.0,0.0,29.97,North,357,3.1,5.8,0,0.00,,---,0.00,VWS V14.01,2013-02-16 14:43:00,
2013-02-16 09:48:00,0.0,0.0,29.97,North,2,2.7,3.6,0,0.00,,---,0.00,VWS V14.01,2013-02-16 14:48:00,
2013-02-16 09:53:00,0.0,0.0,29.97,NNE,18,8.1,8.1,0,0.00,,---,0.00,VWS V14.01,2013-02-16 14:53:00,
2013-02-16 09:58:00,0.0,0.0,29.94,North,357,3.1,4.0,0,0.00,,---,0.00,VWS V14.01,2013-02-16 14:58:00,
2013-02-16 10:03:00,0.0,0.0,29.94,NE,54,6.7,8.3,0,0.00,,---,0.00,VWS V14.01,2013-02-16 15:03:00,
2013-02-16 10:08:00,0.0,0.0,29.94,NE,47,5.4,8.7,0,0.00,,---,0.00,VWS V14.01,2013-02-16 15:08:00,
2013-02-16 10:13:00,0.0,0.0,29.94,NNE,18,3.1,8.7,0,0.00,,---,0.00,VWS V14.01,2013-02-16 15:13:00,
2013-02-16 10:18:00,0.0,0.0,29.94,NNW,343,5.4,11.9,0,0.00,,---,0.00,VWS V14.01,2013-02-16 15:18:00,
2013-02-16 10:23:00,0.0,0.0,29.94,NNE,21,4.9,5.8,0,0.00,,---,0.00,VWS V14.01,2013-02-16 15:23:00,
2013-02-16 10:28:00,0.0,0.0,29.94,NNE,15,3.6,8.7,0,0.00,,---,0.00,VWS V14.01,2013-02-16 15:28:00,
2013-02-16 10:33:00,0.0,0.0,29.94,NE,34,4.0,7.6,0,0.00,,---,0.00,VWS V14.01,2013-02-16 15:33:00,
2013-02-16 10:38:00,0.0,0.0,29.94,NE,34,8.1,8.1,0,0.00,,---,0.00,VWS V14.01,2013-02-16 15:38:00,
2013-02-16 10:43:00,0.0,0.0,29.94,North,353,5.8,8.7,0,0.00,,---,0.00,VWS V14.01,2013-02-16 15:43:00,
2013-02-16 10:48:00,0.0,0.0,29.94,NNE,14,6.7,8.3,0,0.00,,---,0.00,VWS V14.01,2013-02-16 15:48:00,
2013-02-16 10:53:00,0.0,0.0,29.94,NNE,22,8.7,8.7,0,0.00,,---,0.00,VWS V14.01,2013-02-16 15:53:00,
2013-02-16 10:58:00,0.0,0.0,29.94,NE,43,5.8,6.3,0,0.00,,---,0.00,VWS V14.01,2013-02-16 15:58:00,
2013-02-16 11:03:00,0.0,0.0,29.94,NE,55,6.3,6.3,0,0.00,,---,0.00,VWS V14.01,2013-02-16 16:03:00,
2013-02-16 11:08:00,0.0,0.0,29.94,NNE,14,4.0,6.3,0,0.00,,---,0.00,VWS V14.01,2013-02-16 16:08:00,
2013-02-16 11:13:00,0.0,0.0,29.94,North,357,4.0,7.6,0,0.00,,---,0.00,VWS V14.01,2013-02-16 16:13:00,
2013-02-16 11:18:00,0.0,0.0,29.94,NNE,30,6.3,6.3,0,0.00,,---,0.00,VWS V14.01,2013-02-16 16:18:00,
2013-02-16 11:23:00,0.0,0.0,29.94,North,5,8.1,10.1,0,0.00,,---,0.00,VWS V14.01,2013-02-16 16:23:00,
2013-02-16 11:28:00,0.0,0.0,29.94,NNE,13,8.1,8.1,0,0.00,,---,0.00,VWS V14.01,2013-02-16 16:28:00,
2013-02-16 11:33:00,0.0,0.0,29.94,ENE,68,8.1,8.1,0,0.00,,---,0.00,VWS V14.01,2013-02-16 16:33:00,
2013-02-16 11:38:00,0.0,0.0,29.94,NNE,31,4.0,6.3,0,0.00,,---,0.00,VWS V14.01,2013-02-16 16:38:00,
2013-02-16 11:43:00,0.0,0.0,29.91,NE,55,3.1,3.1,0,0.00,,---,0.00,VWS V14.01,2013-02-16 16:43:00,
2013-02-16 11:48:00,0.0,0.0,29.91,NE,46,6.3,10.1,0,0.00,,---,0.00,VWS V14.01,2013-02-16 16:48:00,
2013-02-16 11:53:00,0.0,0.0,29.91,ENE,63,5.4,5.4,0,0.00,,---,0.00,VWS V14.01,2013-02-16 16:53:00,
2013-02-16 11:58:00,0.0,0.0,29.91,NNE,32,7.6,7.6,0,0.00,,---,0.00,VWS V14.01,2013-02-16 16:58:00,
2013-02-16 12:03:00,0.0,0.0,29.91,ENE,60,3.1,4.0,0,0.00,,---,0.00,VWS V14.01,2013-02-16 17:03:00,
2013-02-16 12:08:00,0.0,0.0,29.91,NE,43,3.6,4.0,0,0.00,,---,0.00,VWS V14.01,2013-02-16 17:08:00,
2013-02-16 12:13:00,0.0,0.0,29.91,NE,52,5.4,5.4,0,0.00,,---,0.00,VWS V14.01,2013-02-16 17:13:00,
2013-02-16 12:18:00,0.0,0.0,29.91,NNE,29,4.9,7.2,0,0.00,,---,0.00,VWS V14.01,2013-02-16 17:18:00,
2013-02-16 12:23:00,0.0,0.0,29.91,North,357,2.7,3.6,0,0.00,,---,0.00,VWS V14.01,2013-02-16 17:23:00,
2013-02-16 12:28:00,0.0,0.0,29.91,NE,40,5.4,5.4,0,0.00,,---,0.00,VWS V14.01,2013-02-16 17:28:00,
2013-02-16 12:33:00,0.0,0.0,29.91,NNE,18,5.8,5.8,0,0.00,,---,0.00,VWS V14.01,2013-02-16 17:33:00,
2013-02-16 12:38:00,0.0,0.0,29.91,North,2,6.3,6.3,0,0.00,,---,0.00,VWS V14.01,2013-02-16 17:38:00,
2013-02-16 12:43:00,0.0,0.0,29.88,NE,46,6.3,6.3,0,0.00,,---,0.00,VWS V14.01,2013-02-16 17:43:00,
2013-02-16 12:48:00,0.0,0.0,29.88,NNE,13,3.6,3.6,0,0.00,,---,0.00,VWS V14.01,2013-02-16 17:48:00,
2013-02-16 12:53:00,0.0,0.0,29.88,NNE,27,0.0,3.6,0,0.00,,---,0.00,VWS V14.01,2013-02-16 17:53:00,
2013-02-16 12:58:00,0.0,0.0,29.88,NE,35,4.0,4.0,0,0.00,,---,0.00,VWS V14.01,2013-02-16 17:58:00,
2013-02-16 13:03:00,0.0,0.0,29.88,NNE,32,4.0,4.0,0,0.00,,---,0.00,VWS V14.01,2013-02-16 18:03:00,
2013-02-16 13:08:00,0.0,0.0,29.88,ENE,62,2.2,3.1,0,0.04,,---,0.04,VWS V14.01,2013-02-16 18:08:00,
2013-02-16 13:13:00,0.0,0.0,29.88,NNE,24,6.3,6.3,0,0.04,,---,0.04,VWS V14.01,2013-02-16 18:13:00,
2013-02-16 13:18:00,0.0,0.0,29.88,NE,51,0.0,4.0,0,0.04,,---,0.04,VWS V14.01,2013-02-16 18:18:00,
2013-02-16 13:23:00,0.0,0.0,29.88,NE,36,3.1,3.6,0,0.04,,---,0.04,VWS V14.01,2013-02-16 18:23:00,
2013-02-16 13:28:00,0.0,0.0,29.88,NE,48,5.8,8.7,0,0.04,,---,0.04,VWS V14.01,2013-02-16 18:28:00,
2013-02-16 13:33:00,0.0,0.0,29.88,NNE,30,0.0,4.0,0,0.04,,---,0.04,VWS V14.01,2013-02-16 18:33:00,
2013-02-16 13:38:00,0.0,0.0,29.88,North,357,5.8,5.8,0,0.08,,---,0.08,VWS V14.01,2013-02-16 18:38:00,
2013-02-16 13:43:00,0.0,0.0,29.88,NNE,27,8.1,8.1,0,0.08,,---,0.08,VWS V14.01,2013-02-16 18:43:00,
2013-02-16 13:48:00,0.0,0.0,29.88,NNW,346,6.3,6.3,0,0.08,,---,0.08,VWS V14.01,2013-02-16 18:48:00,
2013-02-16 13:53:00,0.0,0.0,29.88,NE,48,8.3,8.3,0,0.08,,---,0.08,VWS V14.01,2013-02-16 18:53:00,
2013-02-16 13:58:00,0.0,0.0,29.88,NNE,25,5.8,5.8,0,0.08,,---,0.08,VWS V14.01,2013-02-16 18:58:00,
2013-02-16 14:03:00,0.0,0.0,29.88,ENE,65,5.4,6.3,0,0.08,,---,0.08,VWS V14.01,2013-02-16 19:03:00,
2013-02-16 14:08:00,0.0,0.0,29.88,NNE,23,5.8,5.8,0,0.04,,---,0.08,VWS V14.01,2013-02-16 19:08:00,
2013-02-16 14:13:00,0.0,0.0,29.88,NE,45,5.4,7.2,0,0.04,,---,0.08,VWS V14.01,2013-02-16 19:13:00,
2013-02-16 14:18:00,0.0,0.0,29.88,ENE,60,5.8,5.8,0,0.04,,---,0.08,VWS V14.01,2013-02-16 19:18:00,
2013-02-16 14:23:00,0.0,0.0,29.88,North,353,4.0,5.8,0,0.04,,---,0.08,VWS V14.01,2013-02-16 19:23:00,
2013-02-16 14:28:00,0.0,0.0,29.88,North,8,0.0,3.6,0,0.04,,---,0.08,VWS V14.01,2013-02-16 19:28:00,
2013-02-16 14:33:00,0.0,0.0,29.88,NNE,28,2.7,2.7,0,0.04,,---,0.00,VWS V14.01,2013-02-16 19:33:00,
2013-02-16 14:38:00,0.0,0.0,29.88,NNE,32,6.3,6.3,0,0.04,,---,0.12,VWS V14.01,2013-02-16 19:38:00,
2013-02-16 14:43:00,0.0,0.0,29.85,NNE,29,6.3,6.3,0,0.04,,---,0.12,VWS V14.01,2013-02-16 19:43:00,
2013-02-16 14:48:00,0.0,0.0,29.85,NNE,20,5.8,5.8,0,0.04,,---,0.12,VWS V14.01,2013-02-16 19:48:00,
2013-02-16 14:53:00,0.0,0.0,29.85,NE,38,8.7,8.7,0,0.04,,---,0.12,VWS V14.01,2013-02-16 19:53:00,
2013-02-16 14:58:00,0.0,0.0,29.85,NNW,327,8.1,11.0,0,0.04,,---,0.12,VWS V14.01,2013-02-16 19:58:00,
2013-02-16 15:03:00,0.0,0.0,29.85,NNE,22,7.6,7.6,0,0.04,,---,0.12,VWS V14.01,2013-02-16 20:03:00,
2013-02-16 15:08:00,0.0,0.0,29.85,NE,50,6.3,8.3,0,0.04,,---,0.12,VWS V14.01,2013-02-16 20:08:00,
2013-02-16 15:13:00,0.0,0.0,29.85,ENE,57,5.8,8.3,0,0.04,,---,0.12,VWS V14.01,2013-02-16 20:13:00,
2013-02-16 15:18:00,0.0,0.0,29.85,NE,40,8.1,8.1,0,0.04,,---,0.12,VWS V14.01,2013-02-16 20:18:00,
2013-02-16 15:23:00,0.0,0.0,29.85,NE,50,4.0,5.8,0,0.04,,---,0.12,VWS V14.01,2013-02-16 20:23:00,
2013-02-16 15:28:00,0.0,0.0,29.85,NE,46,8.1,8.3,0,0.04,,---,0.12,VWS V14.01,2013-02-16 20:28:00,
2013-02-16 15:33:00,0.0,0.0,29.85,NNE,31,4.0,6.3,0,0.04,,---,0.12,VWS V14.01,2013-02-16 20:33:00,
2013-02-16 15:38:00,0.0,0.0,29.85,NNE,28,7.6,7.6,0,0.00,,---,0.12,VWS V14.01,2013-02-16 20:38:00,
2013-02-16 15:43:00,0.0,0.0,29.85,NNE,16,5.8,8.7,0,0.00,,---,0.12,VWS V14.01,2013-02-16 20:43:00,
2013-02-16 15:48:00,0.0,0.0,29.85,ENE,58,3.1,5.4,0,0.00,,---,0.12,VWS V14.01,2013-02-16 20:48:00,
2013-02-16 15:54:00,0.0,0.0,29.85,NE,37,4.0,5.8,0,0.00,,---,0.00,VWS V14.01,2013-02-16 20:54:00,
2013-02-16 15:59:00,0.0,0.0,29.85,NE,56,6.3,6.3,0,0.00,,---,0.12,VWS V14.01,2013-02-16 20:59:00,
2013-02-16 16:04:00,0.0,0.0,29.85,NE,36,5.4,5.8,0,0.00,,---,0.12,VWS V14.01,2013-02-16 21:04:00,
2013-02-16 16:09:00,0.0,0.0,29.85,NNE,20,5.8,5.8,0,0.00,,---,0.12,VWS V14.01,2013-02-16 21:09:00,
2013-02-16 16:14:00,0.0,0.0,29.85,NNE,16,6.3,6.3,0,0.00,,---,0.12,VWS V14.01,2013-02-16 21:14:00,
2013-02-16 16:19:00,0.0,0.0,29.85,NNE,28,3.6,8.3,0,0.00,,---,0.12,VWS V14.01,2013-02-16 21:19:00,
2013-02-16 16:24:00,0.0,0.0,29.85,NNE,21,4.0,6.3,0,0.00,,---,0.12,VWS V14.01,2013-02-16 21:24:00,
2013-02-16 16:29:00,0.0,0.0,29.83,ENE,61,5.8,8.7,0,0.00,,---,0.12,VWS V14.01,2013-02-16 21:29:00,
2013-02-16 16:34:00,0.0,0.0,29.83,NNE,22,10.1,10.1,0,0.00,,---,0.00,VWS V14.01,2013-02-16 21:34:00,
2013-02-16 16:39:00,0.0,0.0,29.83,NE,35,4.9,4.9,0,0.00,,---,0.12,VWS V14.01,2013-02-16 21:39:00,
2013-02-16 16:44:00,0.0,0.0,29.83,North,6,0.0,0.0,0,0.00,,---,0.12,VWS V14.01,2013-02-16 21:44:00,
2013-02-16 16:49:00,0.0,0.0,29.83,ENE,69,3.6,4.0,0,0.00,,---,0.12,VWS V14.01,2013-02-16 21:49:00,
2013-02-16 16:54:00,0.0,0.0,29.83,NNE,22,2.2,5.8,0,0.00,,---,0.12,VWS V14.01,2013-02-16 21:54:00,
2013-02-16 16:59:00,0.0,0.0,29.83,North,353,3.1,7.6,0,0.00,,---,0.12,VWS V14.01,2013-02-16 21:59:00,
2013-02-16 17:04:00,0.0,0.0,29.83,NE,38,7.6,7.6,0,0.00,,---,0.12,VWS V14.01,2013-02-16 22:04:00,
2013-02-16 17:09:00,0.0,0.0,29.83,NNE,14,5.8,11.4,0,0.00,,---,0.12,VWS V14.01,2013-02-16 22:09:00,
2013-02-16 17:14:00,0.0,0.0,29.83,NNE,22,10.1,10.1,0,0.00,,---,0.12,VWS V14.01,2013-02-16 22:14:00,
2013-02-16 17:19:00,0.0,0.0,29.83,North,357,4.0,8.3,0,0.00,,---,0.00,VWS V14.01,2013-02-16 22:19:00,
2013-02-16 17:24:00,0.0,0.0,29.83,NNE,33,10.1,10.1,0,0.00,,---,0.12,VWS V14.01,2013-02-16 22:24:00,
2013-02-16 17:29:00,0.0,0.0,29.83,North,3,4.0,7.6,0,0.00,,---,0.12,VWS V14.01,2013-02-16 22:29:00,
2013-02-16 17:34:00,0.0,0.0,29.83,NNE,32,4.0,6.3,0,0.00,,---,0.12,VWS V14.01,2013-02-16 22:34:00,
2013-02-16 17:39:00,0.0,0.0,29.83,North,2,10.1,10.1,0,0.00,,---,0.12,VWS V14.01,2013-02-16 22:39:00,
2013-02-16 17:44:00,0.0,0.0,29.83,NNW,341,6.3,8.3,0,0.00,,---,0.12,VWS V14.01,2013-02-16 22:44:00,
2013-02-16 17:49:00,0.0,0.0,29.83,NNE,26,5.8,9.6,0,0.00,,---,0.12,VWS V14.01,2013-02-16 22:49:00,
2013-02-16 17:54:00,0.0,0.0,29.83,North,357,3.6,10.1,0,0.00,,---,0.12,VWS V14.01,2013-02-16 22:54:00,
2013-02-16 17:59:00,0.0,0.0,29.83,North,353,4.9,4.9,0,0.00,,---,0.00,VWS V14.01,2013-02-16 22:59:00,
2013-02-16 18:04:00,0.0,0.0,29.83,NNE,13,12.3,12.3,0,0.00,,---,0.12,VWS V14.01,2013-02-16 23:04:00,
2013-02-16 18:09:00,0.0,0.0,29.83,NNE,21,11.0,11.0,0,0.00,,---,0.12,VWS V14.01,2013-02-16 23:09:00,
2013-02-16 18:14:00,0.0,0.0,29.83,NNE,30,5.8,5.8,0,0.00,,---,0.12,VWS V14.01,2013-02-16 23:14:00,
2013-02-16 18:19:00,0.0,0.0,29.83,NNE,12,11.0,11.0,0,0.00,,---,0.12,VWS V14.01,2013-02-16 23:19:00,
2013-02-16 18:24:00,0.0,0.0,29.83,NNE,14,10.5,11.0,0,0.00,,---,0.12,VWS V14.01,2013-02-16 23:24:00,
2013-02-16 18:29:00,0.0,0.0,29.83,NNE,15,4.0,8.1,0,0.00,,---,0.12,VWS V14.01,2013-02-16 23:29:00,
2013-02-16 18:34:00,0.0,0.0,29.83,North,5,5.4,11.0,0,0.00,,---,0.12,VWS V14.01,2013-02-16 23:34:00,
2013-02-16 18:39:00,0.0,0.0,29.83,North,353,4.0,4.0,0,0.00,,---,0.00,VWS V14.01,2013-02-16 23:39:00,
2013-02-16 18:44:00,0.0,0.0,29.80,NE,37,6.3,12.8,0,0.00,,---,0.00,VWS V14.01,2013-02-16 23:44:00,
2013-02-16 18:49:00,0.0,0.0,29.80,NNE,29,3.1,3.1,0,0.00,,---,0.12,VWS V14.01,2013-02-16 23:49:00,
2013-02-16 18:54:00,0.0,0.0,29.80,North,7,8.7,13.2,0,0.00,,---,0.12,VWS V14.01,2013-02-16 23:54:00,
2013-02-16 18:59:00,0.0,0.0,29.83,NE,53,6.3,9.6,0,0.00,,---,0.12,VWS V14.01,2013-02-16 23:59:00,
2013-02-16 19:04:00,0.0,0.0,29.83,NNE,24,3.1,8.3,0,0.00,,---,0.12,VWS V14.01,2013-02-17 00:04:00,
2013-02-16 19:09:00,0.0,0.0,29.83,NE,42,5.4,7.6,0,0.00,,---,0.12,VWS V14.01,2013-02-17 00:09:00,
2013-02-16 19:14:00,0.0,0.0,29.83,North,7,5.8,5.8,0,0.00,,---,0.12,VWS V14.01,2013-02-17 00:14:00,
2013-02-16 19:19:00,0.0,0.0,29.83,North,10,11.0,12.3,0,0.00,,---,0.12,VWS V14.01,2013-02-17 00:19:00,
2013-02-16 19:24:00,0.0,0.0,29.83,NE,35,8.7,8.7,0,0.00,,---,0.12,VWS V14.01,2013-02-17 00:24:00,
2013-02-16 19:29:00,0.0,0.0,29.83,NNW,333,11.0,11.0,0,0.00,,---,0.12,VWS V14.01,2013-02-17 00:29:00,
2013-02-16 19:34:00,0.0,0.0,29.83,NNE,30,8.1,8.1,0,0.00,,---,0.12,VWS V14.01,2013-02-17 00:34:00,
2013-02-16 19:39:00,0.0,0.0,29.83,NNE,18,4.9,8.1,0,0.00,,---,0.12,VWS V14.01,2013-02-17 00:39:00,
2013-02-16 19:44:00,0.0,0.0,29.83,North,11,6.3,8.1,0,0.00,,---,0.12,VWS V14.01,2013-02-17 00:44:00,
2013-02-16 19:49:00,0.0,0.0,29.83,NNE,30,5.8,5.8,0,0.00,,---,0.12,VWS V14.01,2013-02-17 00:49:00,
2013-02-16 19:54:00,0.0,0.0,29.83,North,10,4.5,5.8,0,0.00,,---,0.12,VWS V14.01,2013-02-17 00:54:00,
2013-02-16 19:59:00,0.0,0.0,29.83,NNE,29,8.3,10.5,0,0.00,,---,0.12,VWS V14.01,2013-02-17 00:59:00,
2013-02-16 20:04:00,0.0,0.0,29.83,North,5,0.0,0.0,0,0.00,,---,0.00,VWS V14.01,2013-02-17 01:04:00,
2013-02-16 20:09:00,0.0,0.0,29.83,North,5,6.3,6.3,0,0.00,,---,0.12,VWS V14.01,2013-02-17 01:09:00,
2013-02-16 20:14:00,0.0,0.0,29.83,North,0,0.0,0.0,0,0.00,,---,0.12,VWS V14.01,2013-02-17 01:14:00,
2013-02-16 20:19:00,0.0,0.0,29.83,East,91,3.1,3.6,0,0.00,,---,0.12,VWS V14.01,2013-02-17 01:19:00,
2013-02-16 20:24:00,0.0,0.0,29.83,North,7,0.0,0.0,0,0.00,,---,0.12,VWS V14.01,2013-02-17 01:24:00,
2013-02-16 20:29:00,0.0,0.0,29.83,North,9,0.0,0.0,0,0.00,,---,0.12,VWS V14.01,2013-02-17 01:29:00,
2013-02-16 20:34:00,0.0,0.0,29.83,NNE,21,0.0,0.0,0,0.00,,---,0.12,VWS V14.01,2013-02-17 01:34:00,
2013-02-16 20:39:00,0.0,0.0,29.83,NNE,19,0.0,0.0,0,0.00,,---,0.12,VWS V14.01,2013-02-17 01:39:00,
2013-02-16 20:44:00,0.0,0.0,29.83,North,353,0.0,0.0,0,0.00,,---,0.12,VWS V14.01,2013-02-17 01:44:00,
2013-02-16 20:49:00,0.0,0.0,29.83,NE,44,0.0,0.0,0,0.00,,---,0.12,VWS V14.01,2013-02-17 01:49:00,
2013-02-16 20:54:00,0.0,0.0,29.83,NE,43,0.0,0.0,0,0.00,,---,0.12,VWS V14.01,2013-02-17 01:54:00,
2013-02-16 20:59:00,0.0,0.0,29.83,NE,34,0.0,0.0,0,0.00,,---,0.12,VWS V14.01,2013-02-17 01:59:00,
2013-02-16 21:04:00,0.0,0.0,29.83,NE,34,0.0,0.0,0,0.00,,---,0.12,VWS V14.01,2013-02-17 02:04:00,
2013-02-16 21:09:00,0.0,0.0,29.83,NNE,25,0.0,0.0,0,0.00,,---,0.12,VWS V14.01,2013-02-17 02:09:00,
2013-02-16 21:14:00,0.0,0.0,29.83,NE,40,0.0,0.0,0,0.00,,---,0.12,VWS V14.01,2013-02-17 02:14:00,
2013-02-16 21:19:00,0.0,0.0,29.83,NE,37,0.0,0.0,0,0.00,,---,0.12,VWS V14.01,2013-02-17 02:19:00,
2013-02-16 21:24:00,0.0,0.0,29.83,NE,46,0.0,0.0,0,0.00,,---,0.12,VWS V14.01,2013-02-17 02:24:00,
2013-02-16 21:29:00,0.0,0.0,29.80,North,357,0.0,0.0,0,0.00,,---,0.12,VWS V14.01,2013-02-17 02:29:00,
2013-02-16 21:34:00,0.0,0.0,29.80,North,357,0.0,0.0,0,0.00,,---,0.12,VWS V14.01,2013-02-17 02:34:00,
2013-02-16 21:39:00,0.0,0.0,29.80,North,357,0.0,0.0,0,0.00,,---,0.12,VWS V14.01,2013-02-17 02:39:00,
2013-02-16 21:44:00,0.0,0.0,29.80,North,0,0.0,0.0,0,0.00,,---,0.12,VWS V14.01,2013-02-17 02:44:00,
2013-02-16 21:49:00,0.0,0.0,29.80,NNE,16,0.0,0.0,0,0.00,,---,0.12,VWS V14.01,2013-02-17 02:49:00,
2013-02-16 21:54:00,0.0,0.0,29.80,NNE,16,0.0,0.0,0,0.00,,---,0.12,VWS V14.01,2013-02-17 02:54:00,
2013-02-16 21:59:00,0.0,0.0,29.80,North,2,0.0,0.0,0,0.00,,---,0.12,VWS V14.01,2013-02-17 02:59:00,
2013-02-16 22:04:00,0.0,0.0,29.80,North,1,0.0,0.0,0,0.00,,---,0.12,VWS V14.01,2013-02-17 03:04:00,
2013-02-16 22:09:00,0.0,0.0,29.80,North,1,0.0,0.0,0,0.00,,---,0.12,VWS V14.01,2013-02-17 03:09:00,
2013-02-16 22:14:00,0.0,0.0,29.80,North,357,0.0,0.0,0,0.00,,---,0.12,VWS V14.01,2013-02-17 03:14:00,
2013-02-16 22:19:00,0.0,0.0,29.80,North,0,0.0,0.0,0,0.00,,---,0.12,VWS V14.01,2013-02-17 03:19:00,
2013-02-16 22:24:00,0.0,0.0,29.80,North,357,0.0,0.0,0,0.00,,---,0.12,VWS V14.01,2013-02-17 03:24:00,
2013-02-16 22:29:00,0.0,0.0,29.80,North,357,0.0,0.0,0,0.00,,---,0.12,VWS V14.01,2013-02-17 03:29:00,
2013-02-16 22:35:00,0.0,0.0,29.80,North,0,0.0,0.0,0,0.00,,---,0.12,VWS V14.01,2013-02-17 03:35:00,
2013-02-16 22:40:00,0.0,0.0,29.80,North,9,0.0,0.0,0,0.00,,---,0.12,VWS V14.01,2013-02-17 03:40:00,
2013-02-16 22:45:00,0.0,0.0,29.80,North,3,0.0,0.0,0,0.00,,---,0.12,VWS V14.01,2013-02-17 03:45:00,
2013-02-16 22:50:00,0.0,0.0,29.80,North,353,0.0,0.0,0,0.00,,---,0.12,VWS V14.01,2013-02-17 03:50:00,
2013-02-16 22:55:00,0.0,0.0,29.80,North,2,0.0,0.0,0,0.00,,---,0.12,VWS V14.01,2013-02-17 03:55:00,
2013-02-16 23:00:00,0.0,0.0,29.77,North,0,0.0,0.0,0,0.00,,---,0.12,VWS V14.01,2013-02-17 04:00:00,
2013-02-16 23:05:00,0.0,0.0,29.77,North,353,0.0,0.0,0,0.00,,---,0.12,VWS V14.01,2013-02-17 04:05:00,
2013-02-16 23:10:00,0.0,0.0,29.77,North,357,0.0,0.0,0,0.00,,---,0.12,VWS V14.01,2013-02-17 04:10:00,
2013-02-16 23:15:00,0.0,0.0,29.77,NNE,24,0.0,0.0,0,0.00,,---,0.12,VWS V14.01,2013-02-17 04:15:00,
2013-02-16 23:20:00,0.0,0.0,29.77,NNE,18,0.0,0.0,0,0.00,,---,0.00,VWS V14.01,2013-02-17 04:20:00,
2013-02-16 23:25:00,0.0,0.0,29.77,NNE,21,0.0,0.0,0,0.00,,---,0.12,VWS V14.01,2013-02-17 04:25:00,
2013-02-16 23:30:00,0.0,0.0,29.77,North,3,0.0,0.0,0,0.00,,---,0.12,VWS V14.01,2013-02-17 04:30:00,
2013-02-16 23:35:00,0.0,0.0,29.77,North,7,0.0,0.0,0,0.00,,---,0.12,VWS V14.01,2013-02-17 04:35:00,
2013-02-16 23:40:00,0.0,0.0,29.77,North,0,0.0,0.0,0,0.00,,---,0.12,VWS V14.01,2013-02-17 04:40:00,
2013-02-16 23:45:00,0.0,0.0,29.74,North,0,0.0,0.0,0,0.00,,---,0.12,VWS V14.01,2013-02-17 04:45:00,
2013-02-16 23:50:00,0.0,0.0,29.74,North,357,0.0,0.0,0,0.00,,---,0.12,VWS V14.01,2013-02-17 04:50:00,
2013-02-16 23:55:00,0.0,0.0,29.74,North,357,0.0,0.0,0,0.00,,---,0.12,VWS V14.01,2013-02-17 04:55:00,